Huvudsida
METAR-TAF:

METAR-TAF

Flygplatser :

Sialkot, Pakistan

latitud: 32-32N, longitud: 74-22E, höjd: 255 m

Aktuellt väderrapport

Denna rapport gjordes för 41 minuter sedan, klockan 06:00 UTC
Vind 6 kt från nordväst
Temperatur 31°C
Fuktighet 29%
Tryck 1009 hPa
Sikt: 4000 m
torrdis,

METAR: OPST 240600Z 31006KT 4000 HZ NSC 31/11 Q1009 NOSIG RH30

Tid: 11:41 (06:41 UTC)

Väderprognos

Denna rapport gjordes för 1 timme och 41 minuter sedan, klockan 05:00 UTC
Prognos gäller från 24 kl. 06 UTC till 25 kl. 12 UTC
Vind 6 kt från nordväst
Sikt: 5000 m
Spridda moln på en höjd av 10000 ft
torrdis
Blir
från 24 kl. 16 UTC till 24 kl. 18 UTC
Vind 4 kt från nordväst
Sikt: 4000 m
rök,

TAF: OPST 240500Z 2406/2512 31006KT 5000 HZ SCT100 TX34/2410Z TN18/2500Z BECMG 2416/2418 31004KT 4000 FU NSC

Aktuella väderrapporter och prognoser från 4000 flygplatser (METAR- och TAF-rapporter).

De tillgängliga stationerna syns som gula och röda prickar på kartan.

För musen över prickarna för att se namnen på stationerna.

Klicka sedan för att få väderrapporter och prognoser.

För att ändra kartan: Klicka på de gröna knapparna med ett svart kors på för att zooma in; den gröna knappen med ett streck på för att zooma ut; eller på de gröna pilarna för angränsande kartor.


METAR-TAF: